sensor_id;sensor_type;location;lat;lon;timestamp;pressure;altitude;pressure_sealevel;temperature;humidity
73063;BME280;61230;46.328;19.972;2023-04-08T00:00:44;100852.66;;;4.71;100.00
73063;BME280;61230;46.328;19.972;2023-04-08T00:03:12;100847.72;;;4.66;100.00
73063;BME280;61230;46.328;19.972;2023-04-08T00:05:40;100848.66;;;4.65;100.00
73063;BME280;61230;46.328;19.972;2023-04-08T00:08:07;100844.47;;;4.62;100.00
73063;BME280;61230;46.328;19.972;2023-04-08T00:10:35;100850.97;;;4.55;100.00
73063;BME280;61230;46.328;19.972;2023-04-08T00:13:03;100846.13;;;4.63;100.00
73063;BME280;61230;46.328;19.972;2023-04-08T00:15:30;100803.03;;;4.30;100.00
73063;BME280;61230;46.328;19.972;2023-04-08T00:17:58;100836.91;;;4.58;100.00
73063;BME280;61230;46.328;19.972;2023-04-08T00:20:27;100840.25;;;4.60;100.00
73063;BME280;61230;46.328;19.972;2023-04-08T00:22:54;100846.50;;;4.57;100.00
73063;BME280;61230;46.328;19.972;2023-04-08T00:25:22;100844.00;;;4.56;100.00
73063;BME280;61230;46.328;19.972;2023-04-08T00:27:51;100847.81;;;4.50;100.00
73063;BME280;61230;46.328;19.972;2023-04-08T00:30:20;100841.81;;;4.48;100.00
73063;BME280;61230;46.328;19.972;2023-04-08T00:32:48;100843.31;;;4.52;100.00
73063;BME280;61230;46.328;19.972;2023-04-08T00:35:16;100849.19;;;4.56;100.00
73063;BME280;61230;46.328;19.972;2023-04-08T00:37:43;100847.16;;;4.61;100.00
73063;BME280;61230;46.328;19.972;2023-04-08T00:40:12;100849.69;;;4.62;100.00
73063;BME280;61230;46.328;19.972;2023-04-08T00:42:39;100846.13;;;4.63;100.00
73063;BME280;61230;46.328;19.972;2023-04-08T00:45:07;100851.44;;;4.62;100.00
73063;BME280;61230;46.328;19.972;2023-04-08T00:47:35;100842.84;;;4.60;100.00
73063;BME280;61230;46.328;19.972;2023-04-08T00:50:07;100848.06;;;4.60;100.00
73063;BME280;61230;46.328;19.972;2023-04-08T00:52:37;100850.78;;;4.58;100.00
73063;BME280;61230;46.328;19.972;2023-04-08T00:55:05;100760.66;;;3.98;100.00
73063;BME280;61230;46.328;19.972;2023-04-08T00:57:33;100853.09;;;4.49;100.00
73063;BME280;61230;46.328;19.972;2023-04-08T01:00:03;100853.09;;;4.49;100.00
73063;BME280;61230;46.328;19.972;2023-04-08T01:02:44;100853.72;;;4.38;100.00
73063;BME280;61230;46.328;19.972;2023-04-08T01:05:19;100852.25;;;4.48;100.00
73063;BME280;61230;46.328;19.972;2023-04-08T01:07:51;100852.34;;;4.47;100.00
73063;BME280;61230;46.328;19.972;2023-04-08T01:10:22;100855.88;;;4.46;100.00
73063;BME280;61230;46.328;19.972;2023-04-08T01:12:56;100857.91;;;4.41;100.00
73063;BME280;61230;46.328;19.972;2023-04-08T01:15:26;100857.25;;;4.37;100.00
73063;BME280;61230;46.328;19.972;2023-04-08T01:17:56;100857.37;;;4.36;100.00
73063;BME280;61230;46.328;19.972;2023-04-08T01:20:26;100848.44;;;4.40;100.00
73063;BME280;61230;46.328;19.972;2023-04-08T01:23:05;100801.12;;;4.18;100.00
73063;BME280;61230;46.328;19.972;2023-04-08T01:25:37;100850.59;;;4.47;100.00
73063;BME280;61230;46.328;19.972;2023-04-08T01:28:08;100845.38;;;4.47;100.00
73063;BME280;61230;46.328;19.972;2023-04-08T01:30:39;100845.19;;;4.50;100.00
73063;BME280;61230;46.328;19.972;2023-04-08T01:33:10;100820.97;;;4.34;100.00
73063;BME280;61230;46.328;19.972;2023-04-08T01:35:38;100849.25;;;4.40;100.00
73063;BME280;61230;46.328;19.972;2023-04-08T01:38:08;100802.25;;;3.99;100.00
73063;BME280;61230;46.328;19.972;2023-04-08T01:40:38;100804.56;;;4.04;100.00
73063;BME280;61230;46.328;19.972;2023-04-08T01:43:09;100835.66;;;4.21;100.00
73063;BME280;61230;46.328;19.972;2023-04-08T01:45:37;100843.56;;;4.20;100.00
73063;BME280;61230;46.328;19.972;2023-04-08T01:48:05;100845.91;;;4.24;100.00
73063;BME280;61230;46.328;19.972;2023-04-08T01:50:34;100801.84;;;3.91;100.00
73063;BME280;61230;46.328;19.972;2023-04-08T01:53:03;100847.72;;;4.08;100.00
73063;BME280;61230;46.328;19.972;2023-04-08T01:55:32;100854.78;;;4.06;100.00
73063;BME280;61230;46.328;19.972;2023-04-08T01:58:02;100856.28;;;4.10;100.00
73063;BME280;61230;46.328;19.972;2023-04-08T02:00:33;100857.97;;;4.11;100.00
73063;BME280;61230;46.328;19.972;2023-04-08T02:03:02;100854.53;;;4.11;100.00
73063;BME280;61230;46.328;19.972;2023-04-08T02:05:33;100858.66;;;3.99;100.00
73063;BME280;61230;46.328;19.972;2023-04-08T02:08:02;100864.97;;;3.95;100.00
73063;BME280;61230;46.328;19.972;2023-04-08T02:10:30;100859.94;;;3.92;100.00
73063;BME280;61230;46.328;19.972;2023-04-08T02:12:58;100863.38;;;3.92;100.00
73063;BME280;61230;46.328;19.972;2023-04-08T02:15:27;100858.16;;;3.92;100.00
73063;BME280;61230;46.328;19.972;2023-04-08T02:18:00;100858.69;;;3.83;100.00
73063;BME280;61230;46.328;19.972;2023-04-08T02:20:42;100860.87;;;3.91;100.00
73063;BME280;61230;46.328;19.972;2023-04-08T02:23:18;100806.53;;;3.55;100.00
73063;BME280;61230;46.328;19.972;2023-04-08T02:25:47;100847.75;;;3.92;100.00
73063;BME280;61230;46.328;19.972;2023-04-08T02:28:17;100851.38;;;3.90;100.00
73063;BME280;61230;46.328;19.972;2023-04-08T02:30:49;100853.91;;;3.91;100.00
73063;BME280;61230;46.328;19.972;2023-04-08T02:33:19;100860.03;;;3.90;100.00
73063;BME280;61230;46.328;19.972;2023-04-08T02:35:51;100854.47;;;3.96;100.00
73063;BME280;61230;46.328;19.972;2023-04-08T02:38:22;100811.91;;;3.68;100.00
73063;BME280;61230;46.328;19.972;2023-04-08T02:40:50;100851.31;;;3.91;100.00
73063;BME280;61230;46.328;19.972;2023-04-08T02:43:18;100863.72;;;3.86;100.00
73063;BME280;61230;46.328;19.972;2023-04-08T02:45:46;100852.84;;;3.80;100.00
73063;BME280;61230;46.328;19.972;2023-04-08T02:48:14;100853.00;;;3.77;100.00
73063;BME280;61230;46.328;19.972;2023-04-08T02:50:42;100852.91;;;3.78;100.00
73063;BME280;61230;46.328;19.972;2023-04-08T02:53:10;100863.09;;;3.83;100.00
73063;BME280;61230;46.328;19.972;2023-04-08T02:55:38;100852.56;;;3.84;100.00
73063;BME280;61230;46.328;19.972;2023-04-08T02:58:06;100856.88;;;3.85;100.00
73063;BME280;61230;46.328;19.972;2023-04-08T03:00:34;100852.97;;;3.92;100.00
73063;BME280;61230;46.328;19.972;2023-04-08T03:03:02;100858.84;;;3.96;100.00
73063;BME280;61230;46.328;19.972;2023-04-08T03:05:30;100804.25;;;3.65;100.00
73063;BME280;61230;46.328;19.972;2023-04-08T03:07:58;100845.78;;;3.82;100.00
73063;BME280;61230;46.328;19.972;2023-04-08T03:10:25;100850.41;;;3.77;100.00
73063;BME280;61230;46.328;19.972;2023-04-08T03:12:53;100842.44;;;3.80;100.00
73063;BME280;61230;46.328;19.972;2023-04-08T03:15:21;100833.63;;;3.82;100.00
73063;BME280;61230;46.328;19.972;2023-04-08T03:17:48;100839.06;;;3.78;100.00
73063;BME280;61230;46.328;19.972;2023-04-08T03:20:16;100848.44;;;3.80;100.00
73063;BME280;61230;46.328;19.972;2023-04-08T03:22:44;100849.91;;;3.86;100.00
73063;BME280;61230;46.328;19.972;2023-04-08T03:25:12;100846.69;;;3.81;100.00
73063;BME280;61230;46.328;19.972;2023-04-08T03:27:39;100853.00;;;3.77;100.00
73063;BME280;61230;46.328;19.972;2023-04-08T03:30:07;100853.59;;;3.66;100.00
73063;BME280;61230;46.328;19.972;2023-04-08T03:32:36;100852.97;;;3.63;100.00
73063;BME280;61230;46.328;19.972;2023-04-08T03:35:05;100849.34;;;3.65;100.00
73063;BME280;61230;46.328;19.972;2023-04-08T03:37:33;100797.66;;;3.43;100.00
73063;BME280;61230;46.328;19.972;2023-04-08T03:40:03;100849.06;;;3.70;100.00
73063;BME280;61230;46.328;19.972;2023-04-08T03:42:31;100845.91;;;3.65;100.00
73063;BME280;61230;46.328;19.972;2023-04-08T03:44:59;100851.78;;;3.68;100.00
73063;BME280;61230;46.328;19.972;2023-04-08T03:47:26;100852.28;;;3.59;100.00
73063;BME280;61230;46.328;19.972;2023-04-08T03:49:55;100858.16;;;3.63;100.00
73063;BME280;61230;46.328;19.972;2023-04-08T03:52:23;100852.19;;;3.61;100.00
73063;BME280;61230;46.328;19.972;2023-04-08T03:54:51;100850.53;;;3.60;100.00
73063;BME280;61230;46.328;19.972;2023-04-08T03:57:18;100861.28;;;3.54;100.00
73063;BME280;61230;46.328;19.972;2023-04-08T03:59:46;100863.59;;;3.58;100.00
73063;BME280;61230;46.328;19.972;2023-04-08T04:02:14;100867.22;;;3.56;100.00
73063;BME280;61230;46.328;19.972;2023-04-08T04:04:42;100874.19;;;3.55;100.00
73063;BME280;61230;46.328;19.972;2023-04-08T04:07:10;100876.88;;;3.54;100.00
73063;BME280;61230;46.328;19.972;2023-04-08T04:09:37;100870.75;;;3.55;100.00
73063;BME280;61230;46.328;19.972;2023-04-08T04:12:05;100874.19;;;3.55;100.00
73063;BME280;61230;46.328;19.972;2023-04-08T04:14:32;100875.59;;;3.61;100.00
73063;BME280;61230;46.328;19.972;2023-04-08T04:17:00;100887.69;;;3.62;100.00
73063;BME280;61230;46.328;19.972;2023-04-08T04:19:31;100887.44;;;3.66;100.00
73063;BME280;61230;46.328;19.972;2023-04-08T04:21:59;100873.16;;;3.58;100.00
73063;BME280;61230;46.328;19.972;2023-04-08T04:24:26;100844.91;;;3.36;100.00
73063;BME280;61230;46.328;19.972;2023-04-08T04:26:54;100892.47;;;3.69;100.00
73063;BME280;61230;46.328;19.972;2023-04-08T04:29:21;100899.09;;;3.75;100.00
73063;BME280;61230;46.328;19.972;2023-04-08T04:31:49;100903.22;;;3.79;100.00
73063;BME280;61230;46.328;19.972;2023-04-08T04:34:17;100902.19;;;3.81;100.00
73063;BME280;61230;46.328;19.972;2023-04-08T04:36:44;100911.84;;;3.79;100.00
73063;BME280;61230;46.328;19.972;2023-04-08T04:39:12;100907.75;;;3.75;100.00
73063;BME280;61230;46.328;19.972;2023-04-08T04:41:40;100905.22;;;3.74;100.00
73063;BME280;61230;46.328;19.972;2023-04-08T04:44:08;100910.44;;;3.74;100.00
73063;BME280;61230;46.328;19.972;2023-04-08T04:46:35;100855.22;;;3.53;100.00
73063;BME280;61230;46.328;19.972;2023-04-08T04:49:03;100899.16;;;3.89;100.00
73063;BME280;61230;46.328;19.972;2023-04-08T04:51:31;100913.94;;;3.88;100.00
73063;BME280;61230;46.328;19.972;2023-04-08T04:53:59;100911.81;;;3.95;100.00
73063;BME280;61230;46.328;19.972;2023-04-08T04:56:27;100905.19;;;4.05;100.00
73063;BME280;61230;46.328;19.972;2023-04-08T04:58:54;100913.41;;;4.13;100.00
73063;BME280;61230;46.328;19.972;2023-04-08T05:01:22;100911.00;;;4.24;100.00
73063;BME280;61230;46.328;19.972;2023-04-08T05:03:50;100870.78;;;4.00;100.00
73063;BME280;61230;46.328;19.972;2023-04-08T05:06:18;100915.75;;;4.32;100.00
73063;BME280;61230;46.328;19.972;2023-04-08T05:08:45;100914.50;;;4.39;100.00
73063;BME280;61230;46.328;19.972;2023-04-08T05:11:13;100913.56;;;4.40;100.00
73063;BME280;61230;46.328;19.972;2023-04-08T05:13:44;100916.34;;;4.37;100.00
73063;BME280;61230;46.328;19.972;2023-04-08T05:16:12;100887.81;;;4.05;100.00
73063;BME280;61230;46.328;19.972;2023-04-08T05:18:40;100925.25;;;4.33;100.00
73063;BME280;61230;46.328;19.972;2023-04-08T05:21:08;100926.00;;;4.35;100.00
73063;BME280;61230;46.328;19.972;2023-04-08T05:23:35;100933.47;;;4.41;100.00
73063;BME280;61230;46.328;19.972;2023-04-08T05:26:06;100934.31;;;4.41;100.00
73063;BME280;61230;46.328;19.972;2023-04-08T05:28:34;100944.09;;;4.52;100.00
73063;BME280;61230;46.328;19.972;2023-04-08T05:31:02;100943.56;;;4.61;100.00
73063;BME280;61230;46.328;19.972;2023-04-08T05:33:30;100944.50;;;4.74;100.00
73063;BME280;61230;46.328;19.972;2023-04-08T05:35:57;100901.13;;;4.45;100.00
73063;BME280;61230;46.328;19.972;2023-04-08T05:38:25;100912.66;;;4.55;100.00
73063;BME280;61230;46.328;19.972;2023-04-08T05:40:53;100963.38;;;4.93;100.00
73063;BME280;61230;46.328;19.972;2023-04-08T05:43:20;100955.75;;;5.04;100.00
73063;BME280;61230;46.328;19.972;2023-04-08T05:45:48;100912.13;;;4.78;100.00
73063;BME280;61230;46.328;19.972;2023-04-08T05:48:15;100962.06;;;5.14;100.00
73063;BME280;61230;46.328;19.972;2023-04-08T05:50:43;100912.50;;;4.86;100.00
73063;BME280;61230;46.328;19.972;2023-04-08T05:53:11;100925.37;;;5.03;100.00
73063;BME280;61230;46.328;19.972;2023-04-08T05:55:39;100960.41;;;5.28;100.00
73063;BME280;61230;46.328;19.972;2023-04-08T05:58:07;100975.09;;;5.43;100.00
73063;BME280;61230;46.328;19.972;2023-04-08T06:00:35;100974.19;;;5.44;100.00
73063;BME280;61230;46.328;19.972;2023-04-08T06:03:02;100966.06;;;5.48;100.00
73063;BME280;61230;46.328;19.972;2023-04-08T06:05:31;100932.16;;;5.34;100.00
73063;BME280;61230;46.328;19.972;2023-04-08T06:07:59;100977.50;;;5.60;100.00
73063;BME280;61230;46.328;19.972;2023-04-08T06:10:27;100970.78;;;5.70;100.00
73063;BME280;61230;46.328;19.972;2023-04-08T06:12:54;100975.63;;;5.76;100.00
73063;BME280;61230;46.328;19.972;2023-04-08T06:15:22;100980.28;;;5.85;100.00
73063;BME280;61230;46.328;19.972;2023-04-08T06:17:50;100939.66;;;5.67;100.00
73063;BME280;61230;46.328;19.972;2023-04-08T06:20:18;100927.91;;;5.60;100.00
73063;BME280;61230;46.328;19.972;2023-04-08T06:22:46;100982.37;;;6.07;100.00
73063;BME280;61230;46.328;19.972;2023-04-08T06:25:14;100986.59;;;6.09;100.00
73063;BME280;61230;46.328;19.972;2023-04-08T06:27:41;100982.94;;;6.12;100.00
73063;BME280;61230;46.328;19.972;2023-04-08T06:30:09;100985.63;;;6.10;100.00
73063;BME280;61230;46.328;19.972;2023-04-08T06:32:38;100984.84;;;6.22;100.00
73063;BME280;61230;46.328;19.972;2023-04-08T06:35:06;100989.28;;;6.34;100.00
73063;BME280;61230;46.328;19.972;2023-04-08T06:37:34;100994.91;;;6.28;100.00
73063;BME280;61230;46.328;19.972;2023-04-08T06:40:06;100996.19;;;6.35;98.97
73063;BME280;61230;46.328;19.972;2023-04-08T06:42:34;100998.03;;;6.33;98.64
73063;BME280;61230;46.328;19.972;2023-04-08T06:45:05;100978.91;;;6.33;98.01
73063;BME280;61230;46.328;19.972;2023-04-08T06:47:33;100997.78;;;6.51;97.26
73063;BME280;61230;46.328;19.972;2023-04-08T06:50:01;101002.03;;;6.66;95.72
73063;BME280;61230;46.328;19.972;2023-04-08T06:52:29;100950.81;;;6.36;95.43
73063;BME280;61230;46.328;19.972;2023-04-08T06:54:57;100982.03;;;6.65;94.56
73063;BME280;61230;46.328;19.972;2023-04-08T06:57:24;101003.59;;;6.68;95.31
73063;BME280;61230;46.328;19.972;2023-04-08T06:59:53;101000.38;;;6.77;95.38
73063;BME280;61230;46.328;19.972;2023-04-08T07:02:20;100999.31;;;6.92;94.06
73063;BME280;61230;46.328;19.972;2023-04-08T07:04:49;100954.03;;;6.67;94.08
73063;BME280;61230;46.328;19.972;2023-04-08T07:07:17;100997.88;;;7.01;93.25
73063;BME280;61230;46.328;19.972;2023-04-08T07:09:45;100958.19;;;6.82;92.48
73063;BME280;61230;46.328;19.972;2023-04-08T07:12:13;100968.25;;;6.88;92.33
73063;BME280;61230;46.328;19.972;2023-04-08T07:14:41;101001.41;;;6.75;93.50
73063;BME280;61230;46.328;19.972;2023-04-08T07:17:08;101001.75;;;7.08;93.24
73063;BME280;61230;46.328;19.972;2023-04-08T07:19:36;101002.91;;;7.17;91.03
73063;BME280;61230;46.328;19.972;2023-04-08T07:22:04;101001.44;;;7.25;90.83
73063;BME280;61230;46.328;19.972;2023-04-08T07:24:31;101007.31;;;7.29;91.16
73063;BME280;61230;46.328;19.972;2023-04-08T07:26:59;101007.91;;;7.45;89.54
73063;BME280;61230;46.328;19.972;2023-04-08T07:29:27;101002.06;;;7.54;88.85
73063;BME280;61230;46.328;19.972;2023-04-08T07:31:54;100993.06;;;7.45;90.68
73063;BME280;61230;46.328;19.972;2023-04-08T07:34:22;101003.56;;;7.69;90.20
73063;BME280;61230;46.328;19.972;2023-04-08T07:36:50;100969.91;;;7.39;89.50
73063;BME280;61230;46.328;19.972;2023-04-08T07:39:17;101011.97;;;7.74;89.39
73063;BME280;61230;46.328;19.972;2023-04-08T07:41:45;101016.09;;;7.40;89.95
73063;BME280;61230;46.328;19.972;2023-04-08T07:44:13;100977.78;;;6.89;90.06
73063;BME280;61230;46.328;19.972;2023-04-08T07:46:43;101023.31;;;7.37;90.95
73063;BME280;61230;46.328;19.972;2023-04-08T07:49:12;101024.78;;;7.53;89.14
73063;BME280;61230;46.328;19.972;2023-04-08T07:51:40;101028.75;;;7.72;89.42
73063;BME280;61230;46.328;19.972;2023-04-08T07:54:08;100987.28;;;7.53;88.41
73063;BME280;61230;46.328;19.972;2023-04-08T07:56:38;101025.78;;;7.64;88.25
73063;BME280;61230;46.328;19.972;2023-04-08T07:59:06;101031.16;;;7.62;88.81
73063;BME280;61230;46.328;19.972;2023-04-08T08:01:34;101037.75;;;7.68;86.82
73063;BME280;61230;46.328;19.972;2023-04-08T08:04:02;101031.53;;;7.81;86.24
73063;BME280;61230;46.328;19.972;2023-04-08T08:06:30;101033.25;;;8.06;85.33
73063;BME280;61230;46.328;19.972;2023-04-08T08:09:00;101030.56;;;7.95;86.42
73063;BME280;61230;46.328;19.972;2023-04-08T08:11:28;101034.50;;;8.13;86.99
73063;BME280;61230;46.328;19.972;2023-04-08T08:13:55;101031.75;;;8.27;87.10
73063;BME280;61230;46.328;19.972;2023-04-08T08:16:27;101032.47;;;8.29;84.07
73063;BME280;61230;46.328;19.972;2023-04-08T08:18:55;100982.09;;;8.00;83.31
73063;BME280;61230;46.328;19.972;2023-04-08T08:21:22;101038.25;;;8.22;83.88
73063;BME280;61230;46.328;19.972;2023-04-08T08:23:53;101035.00;;;8.18;83.64
73063;BME280;61230;46.328;19.972;2023-04-08T08:26:21;101040.09;;;8.32;83.52
73063;BME280;61230;46.328;19.972;2023-04-08T08:28:49;100991.19;;;8.20;82.51
73063;BME280;61230;46.328;19.972;2023-04-08T08:31:17;100998.41;;;8.17;80.56
73063;BME280;61230;46.328;19.972;2023-04-08T08:33:44;101020.44;;;8.14;81.73
73063;BME280;61230;46.328;19.972;2023-04-08T08:36:12;101038.56;;;8.17;82.83
73063;BME280;61230;46.328;19.972;2023-04-08T08:38:40;101035.66;;;8.09;82.41
73063;BME280;61230;46.328;19.972;2023-04-08T08:41:08;101043.69;;;8.31;82.64
73063;BME280;61230;46.328;19.972;2023-04-08T08:43:35;101039.16;;;8.33;81.80
73063;BME280;61230;46.328;19.972;2023-04-08T08:46:07;101044.25;;;8.47;81.34
73063;BME280;61230;46.328;19.972;2023-04-08T08:48:37;101041.44;;;8.38;82.07
73063;BME280;61230;46.328;19.972;2023-04-08T08:51:11;101045.59;;;8.53;82.68
73063;BME280;61230;46.328;19.972;2023-04-08T08:53:39;101042.72;;;8.32;82.29
73063;BME280;61230;46.328;19.972;2023-04-08T08:56:11;101042.34;;;8.13;83.04
73063;BME280;61230;46.328;19.972;2023-04-08T08:58:45;101044.91;;;8.38;83.30
73063;BME280;61230;46.328;19.972;2023-04-08T09:01:32;101041.72;;;8.70;80.55
73063;BME280;61230;46.328;19.972;2023-04-08T09:04:15;101051.41;;;8.45;81.71
73063;BME280;61230;46.328;19.972;2023-04-08T09:07:11;101048.72;;;8.34;83.48
73063;BME280;61230;46.328;19.972;2023-04-08T09:09:48;101046.09;;;8.34;81.42
73063;BME280;61230;46.328;19.972;2023-04-08T09:12:16;101041.34;;;8.98;81.18
73063;BME280;61230;46.328;19.972;2023-04-08T09:14:45;101044.28;;;9.39;78.00
73063;BME280;61230;46.328;19.972;2023-04-08T09:17:13;101034.84;;;9.37;78.97
73063;BME280;61230;46.328;19.972;2023-04-08T09:20:07;101058.59;;;9.35;78.87
73063;BME280;61230;46.328;19.972;2023-04-08T09:25:27;101055.09;;;9.12;73.91
73063;BME280;61230;46.328;19.972;2023-04-08T09:27:56;101058.22;;;9.17;77.45
73063;BME280;61230;46.328;19.972;2023-04-08T09:30:25;101060.63;;;9.54;75.40
73063;BME280;61230;46.328;19.972;2023-04-08T09:32:57;101050.50;;;9.60;74.36
73063;BME280;61230;46.328;19.972;2023-04-08T09:35:25;101060.06;;;9.61;74.97
73063;BME280;61230;46.328;19.972;2023-04-08T09:37:53;101073.06;;;9.41;75.07
73063;BME280;61230;46.328;19.972;2023-04-08T09:40:21;101070.09;;;9.56;74.95
73063;BME280;61230;46.328;19.972;2023-04-08T09:42:51;101063.81;;;9.13;75.60
73063;BME280;61230;46.328;19.972;2023-04-08T09:45:20;101070.06;;;9.34;76.56
73063;BME280;61230;46.328;19.972;2023-04-08T09:47:56;101070.06;;;9.34;75.51
73063;BME280;61230;46.328;19.972;2023-04-08T09:50:31;101076.75;;;8.92;74.80
73063;BME280;61230;46.328;19.972;2023-04-08T09:53:01;101066.63;;;8.99;76.81
73063;BME280;61230;46.328;19.972;2023-04-08T09:55:35;101074.97;;;8.93;77.96
73063;BME280;61230;46.328;19.972;2023-04-08T09:58:20;101082.44;;;8.86;80.41
73063;BME280;61230;46.328;19.972;2023-04-08T10:00:51;101073.63;;;9.22;80.49
73063;BME280;61230;46.328;19.972;2023-04-08T10:05:54;101033.53;;;8.50;80.72
73063;BME280;61230;46.328;19.972;2023-04-08T10:08:26;101067.28;;;8.79;79.64
73063;BME280;61230;46.328;19.972;2023-04-08T10:10:54;101070.41;;;8.84;80.07
73063;BME280;61230;46.328;19.972;2023-04-08T10:13:23;101078.44;;;8.70;77.44
73063;BME280;61230;46.328;19.972;2023-04-08T10:16:18;101030.47;;;8.33;77.80
73063;BME280;61230;46.328;19.972;2023-04-08T10:18:47;101071.03;;;8.63;77.95
73063;BME280;61230;46.328;19.972;2023-04-08T10:21:38;101074.37;;;8.65;80.79
73063;BME280;61230;46.328;19.972;2023-04-08T10:24:09;101070.19;;;8.63;81.81
73063;BME280;61230;46.328;19.972;2023-04-08T10:26:38;101068.97;;;8.80;82.81
73063;BME280;61230;46.328;19.972;2023-04-08T10:31:44;101074.28;;;9.02;82.83
73063;BME280;61230;46.328;19.972;2023-04-08T10:36:45;101076.50;;;8.37;77.74
73063;BME280;61230;46.328;19.972;2023-04-08T10:39:13;101073.28;;;8.57;78.71
73063;BME280;61230;46.328;19.972;2023-04-08T10:41:45;101070.59;;;9.04;80.08
73063;BME280;61230;46.328;19.972;2023-04-08T10:44:22;101070.00;;;9.12;79.54
73063;BME280;61230;46.328;19.972;2023-04-08T10:46:51;101072.91;;;9.31;81.10
73063;BME280;61230;46.328;19.972;2023-04-08T10:49:19;101073.19;;;9.39;79.95
73063;BME280;61230;46.328;19.972;2023-04-08T10:51:48;101068.75;;;9.51;78.60
73063;BME280;61230;46.328;19.972;2023-04-08T10:54:17;101075.91;;;9.27;78.79
73063;BME280;61230;46.328;19.972;2023-04-08T10:56:49;101076.72;;;8.81;78.58
73063;BME280;61230;46.328;19.972;2023-04-08T10:59:29;101037.41;;;8.68;78.56
73063;BME280;61230;46.328;19.972;2023-04-08T11:01:57;101031.62;;;8.76;79.70
73063;BME280;61230;46.328;19.972;2023-04-08T11:04:26;101088.75;;;8.84;79.30
73063;BME280;61230;46.328;19.972;2023-04-08T11:06:53;101075.56;;;8.61;79.55
73063;BME280;61230;46.328;19.972;2023-04-08T11:09:21;101068.31;;;8.65;78.54
73063;BME280;61230;46.328;19.972;2023-04-08T11:11:49;101080.84;;;8.49;79.96
73063;BME280;61230;46.328;19.972;2023-04-08T11:14:18;101069.53;;;8.48;79.72
73063;BME280;61230;46.328;19.972;2023-04-08T11:16:48;101078.09;;;8.74;79.21
73063;BME280;61230;46.328;19.972;2023-04-08T11:19:16;101071.16;;;8.62;81.00
73063;BME280;61230;46.328;19.972;2023-04-08T11:21:44;101073.91;;;8.72;80.02
73063;BME280;61230;46.328;19.972;2023-04-08T11:24:13;101074.25;;;8.67;78.36
73063;BME280;61230;46.328;19.972;2023-04-08T11:26:43;101027.28;;;8.40;78.27
73063;BME280;61230;46.328;19.972;2023-04-08T11:29:10;101073.03;;;8.36;78.85
73063;BME280;61230;46.328;19.972;2023-04-08T11:31:43;101069.59;;;8.59;79.33
73063;BME280;61230;46.328;19.972;2023-04-08T11:34:11;101074.78;;;8.48;80.54
73063;BME280;61230;46.328;19.972;2023-04-08T11:36:39;101075.38;;;8.52;82.04
73063;BME280;61230;46.328;19.972;2023-04-08T11:39:08;101083.50;;;8.60;81.76
73063;BME280;61230;46.328;19.972;2023-04-08T11:41:38;101076.12;;;8.54;80.42
73063;BME280;61230;46.328;19.972;2023-04-08T11:44:07;101023.34;;;8.22;80.66
73063;BME280;61230;46.328;19.972;2023-04-08T11:46:35;101082.13;;;8.67;81.38
73063;BME280;61230;46.328;19.972;2023-04-08T11:49:07;101075.56;;;8.61;80.96
73063;BME280;61230;46.328;19.972;2023-04-08T11:51:53;101083.03;;;8.31;80.50
73063;BME280;61230;46.328;19.972;2023-04-08T11:54:25;101076.00;;;8.55;80.89
73063;BME280;61230;46.328;19.972;2023-04-08T11:56:54;101069.44;;;8.37;82.93
73063;BME280;61230;46.328;19.972;2023-04-08T11:59:23;101023.97;;;8.26;80.29
73063;BME280;61230;46.328;19.972;2023-04-08T12:01:53;101075.31;;;8.41;82.17
73063;BME280;61230;46.328;19.972;2023-04-08T12:04:20;101070.84;;;8.30;81.89
73063;BME280;61230;46.328;19.972;2023-04-08T12:06:48;101047.78;;;8.23;81.89
73063;BME280;61230;46.328;19.972;2023-04-08T12:09:16;101077.56;;;8.22;83.30
73063;BME280;61230;46.328;19.972;2023-04-08T12:11:44;101074.31;;;8.31;83.63
73063;BME280;61230;46.328;19.972;2023-04-08T12:14:11;101073.94;;;7.99;83.27
73063;BME280;61230;46.328;19.972;2023-04-08T12:16:39;101081.53;;;8.40;85.43
73063;BME280;61230;46.328;19.972;2023-04-08T12:19:08;101075.28;;;8.53;82.37
73063;BME280;61230;46.328;19.972;2023-04-08T12:21:35;101077.31;;;8.37;83.33
73063;BME280;61230;46.328;19.972;2023-04-08T12:24:05;101066.94;;;8.23;81.99
73063;BME280;61230;46.328;19.972;2023-04-08T12:26:33;101067.72;;;8.49;83.66
73063;BME280;61230;46.328;19.972;2023-04-08T12:29:01;101076.44;;;8.49;83.91
73063;BME280;61230;46.328;19.972;2023-04-08T12:31:28;101073.72;;;8.51;84.11
73063;BME280;61230;46.328;19.972;2023-04-08T12:33:56;101076.50;;;8.37;82.06
73063;BME280;61230;46.328;19.972;2023-04-08T12:36:24;101065.09;;;8.13;81.16
73063;BME280;61230;46.328;19.972;2023-04-08T12:38:53;101068.44;;;8.15;82.35
73063;BME280;61230;46.328;19.972;2023-04-08T12:41:21;101081.50;;;7.91;80.94
73063;BME280;61230;46.328;19.972;2023-04-08T12:43:48;101069.62;;;8.10;81.02
73063;BME280;61230;46.328;19.972;2023-04-08T12:46:16;101029.97;;;7.91;81.05
73063;BME280;61230;46.328;19.972;2023-04-08T12:48:44;101067.91;;;8.22;82.34
73063;BME280;61230;46.328;19.972;2023-04-08T12:51:13;101070.19;;;8.03;84.21
73063;BME280;61230;46.328;19.972;2023-04-08T12:53:41;101075.59;;;8.13;83.53
73063;BME280;61230;46.328;19.972;2023-04-08T12:56:09;101076.78;;;7.83;84.18
73063;BME280;61230;46.328;19.972;2023-04-08T12:58:36;101075.22;;;7.93;85.10
73063;BME280;61230;46.328;19.972;2023-04-08T13:01:04;101073.94;;;7.99;86.67
73063;BME280;61230;46.328;19.972;2023-04-08T13:03:32;101079.69;;;8.17;84.97
73063;BME280;61230;46.328;19.972;2023-04-08T13:06:02;101071.16;;;7.77;86.11